This is the latest recevied weather packets stored in our database for station/object KC8ZBC. If no packets are shown the sender has not sent any weather packets the latest 1 day(s).
| Time | Temp. | Humidity | Pressure | Rain* | Wind** | Luminosity | Snow |
|---|---|---|---|---|---|---|---|
| 1778003482 | 12.78° C | 69% | 981.9 hPa | 0 mm | 1.34 m/s, 249° | 214 W/m² | - |
| 1778003178 | 12.22° C | 70% | 981.8 hPa | 0 mm | 0.89 m/s, 283° | 219 W/m² | - |
| 1778002874 | 12.22° C | 70% | 981.9 hPa | 0 mm | 0 m/s | 198 W/m² | - |
| 1778002571 | 12.22° C | 70% | 981.9 hPa | 0 mm | 1.79 m/s, 205° | 163 W/m² | - |
| 1778002268 | 12.22° C | 69% | 982 hPa | 0 mm | 1.34 m/s, 192° | 191 W/m² | - |
| 1778001966 | 11.67° C | 71% | 982 hPa | 0 mm | 0.89 m/s, 344° | 181 W/m² | - |
| 1778001662 | 11.67° C | 71% | 981.7 hPa | 0 mm | 0 m/s | 152 W/m² | - |
| 1778001356 | 11.67° C | 73% | 981.7 hPa | 0 mm | 0.89 m/s, 0° | 176 W/m² | - |
| 1778001054 | 12.22° C | 74% | 981.8 hPa | 0.51 mm | 1.34 m/s, 318° | 203 W/m² | - |
| 1778000751 | 11.67° C | 73% | 981.8 hPa | 0.51 mm | 1.34 m/s, 235° | 221 W/m² | - |
| 1778000447 | 11.67° C | 74% | 981.9 hPa | 0 mm | 1.34 m/s, 192° | 236 W/m² | - |
| 1778000142 | 11.67° C | 74% | 981.8 hPa | 0 mm | 1.79 m/s, 225° | 201 W/m² | - |
| 1777999838 | 11.67° C | 76% | 982 hPa | 0 mm | 0.45 m/s, 264° | 209 W/m² | - |
| 1777999534 | 11.11° C | 77% | 982.2 hPa | 0 mm | 0.45 m/s, 289° | 196 W/m² | - |
| 1777999232 | 10.56° C | 77% | 982.1 hPa | 0 mm | 0.89 m/s, 270° | 150 W/m² | - |
| 1777998931 | 10.56° C | 78% | 982 hPa | 0 mm | 0 m/s | 108 W/m² | - |
| 1777998627 | 10.56° C | 78% | 982 hPa | 0 mm | 0 m/s | 99 W/m² | - |
| 1777998325 | 10° C | 79% | 982.2 hPa | 0 mm | 0 m/s | 97 W/m² | - |
| 1777998017 | 10° C | 79% | 982.1 hPa | 0 mm | 1.34 m/s, 194° | 69 W/m² | - |
| 1777997714 | 10° C | 80% | 982 hPa | 0 mm | 0.45 m/s, 168° | 78 W/m² | - |
| 1777997411 | 10° C | 80% | 982.1 hPa | 0 mm | 0.45 m/s, 200° | 88 W/m² | - |
| 1777997109 | 10° C | 79% | 981.9 hPa | 0 mm | 0 m/s | 92 W/m² | - |
| 1777996806 | 10° C | 79% | 981.9 hPa | 0 mm | 0 m/s | 84 W/m² | - |
| 1777996502 | 10° C | 80% | 981.9 hPa | 0 mm | 1.34 m/s, 225° | 82 W/m² | - |
| 1777996199 | 9.44° C | 83% | 982 hPa | 0 mm | 1.34 m/s, 242° | 92 W/m² | - |
* Rain latest hour (hover to see other rain measurements)
** Current wind speed in m/s (hover to see current wind gust speed)